Portada
METAR-TAF:

METAR-TAF

Aeroports :

Roskilde, Dinamarca

latitud: 55-35N, longitud: 012-08E, altitud: 44 m

Observació

L'informe es va fer fa 37 minuts, a les 10:20 UTC
Vent 8 kt del Est/Sud-Est, variant entre Est/Nord-Est i Sud-Est
Temperatura 20°C
Humitat 53%
Pressió 1013 hPa
Visibilitat 10 km o més

METAR: EKRK 051020Z AUTO 11008KT 070V140 9999 NCD 20/10 Q1013

Hora: 12:57 (10:57 UTC)

Pronòstic

L'informe es va fer fa 2 hores i 32 minuts, a les 08:25 UTC
Pronòstic vàlid del 05 a les 09 UTC al 05 a les 18 UTC
Vent 10 kt del Est/Sud-Est
Visibilitat 10 km o més
sense núvols per sota de 1500 mi sense presència de cumulonimbus.

TAF: EKRK 050825Z 0509/0518 11010KT CAVOK

Observacions i pronòstics meteorològics de més de 4000 aeroports (METAR i TAF).

Les estacions disponibles són els punts grocs i vermells al mapa.

Posi el ratolí al punt desitjat per veure el nom de l'estació.

Feu clic per veure les observacions i els pronòstics meteorològics.

Per canviar el mapa: feu clic els botons verds amb una creu de color negre per apropar; al botó verd amb un guió per allunyar la imatge; o en les fletxes verdes per a mapes adjacents.


METAR-TAF: